sensor_id;sensor_type;location;lat;lon;timestamp;pressure;altitude;pressure_sealevel;temperature;humidity
82562;BME280;72228;51.208;10.468;2023-08-30T00:01:42;98427.47;;;21.54;56.67
82562;BME280;72228;51.208;10.468;2023-08-30T00:04:07;98424.22;;;21.52;56.79
82562;BME280;72228;51.208;10.468;2023-08-30T00:06:32;98419.38;;;21.52;56.70
82562;BME280;72228;51.208;10.468;2023-08-30T00:08:58;98423.44;;;21.51;57.09
82562;BME280;72228;51.208;10.468;2023-08-30T00:11:23;98422.63;;;21.51;57.08
82562;BME280;72228;51.208;10.468;2023-08-30T00:13:49;98427.06;;;21.52;56.88
82562;BME280;72228;51.208;10.468;2023-08-30T00:16:14;98417.78;;;21.51;56.93
82562;BME280;72228;51.208;10.468;2023-08-30T00:18:42;98429.06;;;21.51;56.87
82562;BME280;72228;51.208;10.468;2023-08-30T00:21:07;98424.22;;;21.52;56.83
82562;BME280;72228;51.208;10.468;2023-08-30T00:23:33;98428.25;;;21.51;57.01
82562;BME280;72228;51.208;10.468;2023-08-30T00:25:59;98423.44;;;21.51;56.72
82562;BME280;72228;51.208;10.468;2023-08-30T00:28:24;98425.44;;;21.51;56.94
82562;BME280;72228;51.208;10.468;2023-08-30T00:30:55;98427.88;;;21.49;56.80
82562;BME280;72228;51.208;10.468;2023-08-30T00:33:20;98429.06;;;21.51;56.87
82562;BME280;72228;51.208;10.468;2023-08-30T00:35:46;98431.09;;;21.51;56.97
82562;BME280;72228;51.208;10.468;2023-08-30T00:38:11;98432.31;;;21.50;56.96
82562;BME280;72228;51.208;10.468;2023-08-30T00:40:40;98436.72;;;21.51;56.95
82562;BME280;72228;51.208;10.468;2023-08-30T00:43:08;98437.13;;;21.49;57.05
82562;BME280;72228;51.208;10.468;2023-08-30T00:45:34;98439.53;;;21.51;56.63
82562;BME280;72228;51.208;10.468;2023-08-30T00:48:03;98438.75;;;21.50;57.03
82562;BME280;72228;51.208;10.468;2023-08-30T00:50:29;98429.88;;;21.48;56.96
82562;BME280;72228;51.208;10.468;2023-08-30T00:52:55;98435.53;;;21.48;56.78
82562;BME280;72228;51.208;10.468;2023-08-30T00:55:20;98435.53;;;21.48;56.92
82562;BME280;72228;51.208;10.468;2023-08-30T00:57:46;98433.50;;;21.49;57.19
82562;BME280;72228;51.208;10.468;2023-08-30T01:00:11;98439.53;;;21.47;57.04
82562;BME280;72228;51.208;10.468;2023-08-30T01:02:37;98431.88;;;21.48;57.25
82562;BME280;72228;51.208;10.468;2023-08-30T01:05:03;98439.53;;;21.47;56.73
82562;BME280;72228;51.208;10.468;2023-08-30T01:07:28;98434.69;;;21.48;56.71
82562;BME280;72228;51.208;10.468;2023-08-30T01:09:54;98434.69;;;21.48;56.98
82562;BME280;72228;51.208;10.468;2023-08-30T01:12:28;98431.06;;;21.47;56.65
82562;BME280;72228;51.208;10.468;2023-08-30T01:15:06;98443.56;;;21.46;56.97
82562;BME280;72228;51.208;10.468;2023-08-30T01:17:33;98430.69;;;21.45;56.96
82562;BME280;72228;51.208;10.468;2023-08-30T01:20:06;98432.28;;;21.46;56.69
82562;BME280;72228;51.208;10.468;2023-08-30T01:27:58;98431.47;;;21.46;56.72
82562;BME280;72228;51.208;10.468;2023-08-30T01:30:26;98431.47;;;21.46;56.96
82562;BME280;72228;51.208;10.468;2023-08-30T01:32:52;98436.31;;;21.45;56.99
82562;BME280;72228;51.208;10.468;2023-08-30T01:35:19;98430.69;;;21.45;57.07
82562;BME280;72228;51.208;10.468;2023-08-30T01:37:47;98429.06;;;21.44;56.89
82562;BME280;72228;51.208;10.468;2023-08-30T01:40:15;98424.25;;;21.45;57.06
82562;BME280;72228;51.208;10.468;2023-08-30T01:42:42;98417.00;;;21.44;56.96
82562;BME280;72228;51.208;10.468;2023-08-30T01:45:10;98417.00;;;21.44;56.89
82562;BME280;72228;51.208;10.468;2023-08-30T01:47:39;98411.34;;;21.44;56.62
82562;BME280;72228;51.208;10.468;2023-08-30T01:50:06;98411.34;;;21.44;56.76
82562;BME280;72228;51.208;10.468;2023-08-30T01:52:32;98422.63;;;21.44;56.69
82562;BME280;72228;51.208;10.468;2023-08-30T01:54:58;98418.22;;;21.42;56.72
82562;BME280;72228;51.208;10.468;2023-08-30T01:57:23;98422.63;;;21.44;56.82
82562;BME280;72228;51.208;10.468;2023-08-30T01:59:49;98421.84;;;21.43;56.47
82562;BME280;72228;51.208;10.468;2023-08-30T02:02:14;98415.38;;;21.42;56.61
82562;BME280;72228;51.208;10.468;2023-08-30T02:04:40;98421.03;;;21.42;56.70
82562;BME280;72228;51.208;10.468;2023-08-30T02:07:14;98421.84;;;21.43;56.45
82562;BME280;72228;51.208;10.468;2023-08-30T02:10:01;98426.66;;;21.42;56.91
82562;BME280;72228;51.208;10.468;2023-08-30T02:12:31;98425.88;;;21.42;56.83
82562;BME280;72228;51.208;10.468;2023-08-30T02:15:00;98417.78;;;21.40;56.76
82562;BME280;72228;51.208;10.468;2023-08-30T02:17:27;98408.94;;;21.42;56.99
82562;BME280;72228;51.208;10.468;2023-08-30T02:19:52;98410.94;;;21.41;56.44
82562;BME280;72228;51.208;10.468;2023-08-30T02:22:19;98405.28;;;21.41;56.63
82562;BME280;72228;51.208;10.468;2023-08-30T02:24:44;98400.06;;;21.40;56.74
82562;BME280;72228;51.208;10.468;2023-08-30T02:27:10;98405.69;;;21.40;56.57
82562;BME280;72228;51.208;10.468;2023-08-30T02:29:35;98409.31;;;21.40;56.67
82562;BME280;72228;51.208;10.468;2023-08-30T02:32:00;98414.16;;;21.40;56.93
82562;BME280;72228;51.208;10.468;2023-08-30T02:34:26;98414.56;;;21.38;56.90
82562;BME280;72228;51.208;10.468;2023-08-30T02:36:51;98414.56;;;21.38;56.81
82562;BME280;72228;51.208;10.468;2023-08-30T02:39:17;98414.97;;;21.40;56.73
82562;BME280;72228;51.208;10.468;2023-08-30T02:41:42;98422.63;;;21.40;56.86
82562;BME280;72228;51.208;10.468;2023-08-30T02:44:08;98416.97;;;21.40;56.36
82562;BME280;72228;51.208;10.468;2023-08-30T02:46:33;98415.38;;;21.39;56.80
82562;BME280;72228;51.208;10.468;2023-08-30T02:48:59;98419.41;;;21.38;56.81
82562;BME280;72228;51.208;10.468;2023-08-30T02:51:24;98419.00;;;21.39;56.83
82562;BME280;72228;51.208;10.468;2023-08-30T02:53:50;98411.75;;;21.38;56.51
82562;BME280;72228;51.208;10.468;2023-08-30T02:56:15;98411.75;;;21.38;56.91
82562;BME280;72228;51.208;10.468;2023-08-30T02:58:41;98418.19;;;21.39;56.75
82562;BME280;72228;51.208;10.468;2023-08-30T03:01:06;98412.97;;;21.45;57.12
82562;BME280;72228;51.208;10.468;2023-08-30T03:03:32;98416.16;;;21.47;56.73
82562;BME280;72228;51.208;10.468;2023-08-30T03:05:57;98411.34;;;21.44;56.85
82562;BME280;72228;51.208;10.468;2023-08-30T03:08:23;98414.97;;;21.44;56.88
82562;BME280;72228;51.208;10.468;2023-08-30T03:10:48;98416.16;;;21.47;57.18
82562;BME280;72228;51.208;10.468;2023-08-30T03:13:14;98413.75;;;21.45;56.95
82562;BME280;72228;51.208;10.468;2023-08-30T03:15:39;98407.31;;;21.45;57.33
82562;BME280;72228;51.208;10.468;2023-08-30T03:18:04;98403.28;;;21.46;57.16
82562;BME280;72228;51.208;10.468;2023-08-30T03:20:30;98401.69;;;21.45;57.62
82562;BME280;72228;51.208;10.468;2023-08-30T03:22:56;98397.25;;;21.44;57.23
82562;BME280;72228;51.208;10.468;2023-08-30T03:25:23;98400.06;;;21.44;57.36
82562;BME280;72228;51.208;10.468;2023-08-30T03:27:48;98396.84;;;21.41;57.29
82562;BME280;72228;51.208;10.468;2023-08-30T03:30:14;98399.66;;;21.41;57.39
82562;BME280;72228;51.208;10.468;2023-08-30T03:32:39;98408.09;;;21.41;57.40
82562;BME280;72228;51.208;10.468;2023-08-30T03:35:05;98403.31;;;21.42;57.47
82562;BME280;72228;51.208;10.468;2023-08-30T03:37:31;98412.97;;;21.45;57.74
82562;BME280;72228;51.208;10.468;2023-08-30T03:39:56;98402.47;;;21.45;57.45
82562;BME280;72228;51.208;10.468;2023-08-30T03:42:21;98399.66;;;21.45;57.70
82562;BME280;72228;51.208;10.468;2023-08-30T03:44:47;98407.31;;;21.52;58.31
82562;BME280;72228;51.208;10.468;2023-08-30T03:47:12;98412.16;;;21.55;57.34
82562;BME280;72228;51.208;10.468;2023-08-30T03:49:38;98403.69;;;21.55;57.90
82562;BME280;72228;51.208;10.468;2023-08-30T03:52:03;98403.28;;;21.53;57.98
82562;BME280;72228;51.208;10.468;2023-08-30T03:54:29;98396.03;;;21.52;57.89
82562;BME280;72228;51.208;10.468;2023-08-30T03:56:54;98405.69;;;21.58;59.02
82562;BME280;72228;51.208;10.468;2023-08-30T03:59:19;98404.88;;;21.64;58.51
82562;BME280;72228;51.208;10.468;2023-08-30T04:01:46;98409.72;;;21.57;58.36
82562;BME280;72228;51.208;10.468;2023-08-30T04:04:12;98403.69;;;21.48;58.19
82562;BME280;72228;51.208;10.468;2023-08-30T04:06:37;98404.09;;;21.46;57.72
82562;BME280;72228;51.208;10.468;2023-08-30T04:09:03;98400.06;;;21.44;58.05
82562;BME280;72228;51.208;10.468;2023-08-30T04:11:28;98401.28;;;21.42;57.78
82562;BME280;72228;51.208;10.468;2023-08-30T04:13:54;98396.84;;;21.41;57.70
82562;BME280;72228;51.208;10.468;2023-08-30T04:16:19;98400.88;;;21.40;57.72
82562;BME280;72228;51.208;10.468;2023-08-30T04:18:44;98398.88;;;21.37;57.73
82562;BME280;72228;51.208;10.468;2023-08-30T04:21:10;98394.44;;;21.36;56.97
82562;BME280;72228;51.208;10.468;2023-08-30T04:23:35;98397.25;;;21.36;57.03
82562;BME280;72228;51.208;10.468;2023-08-30T04:26:01;98397.63;;;21.35;57.02
82562;BME280;72228;51.208;10.468;2023-08-30T04:28:26;98402.47;;;21.34;56.97
82562;BME280;72228;51.208;10.468;2023-08-30T04:30:55;98398.44;;;21.35;56.66
82562;BME280;72228;51.208;10.468;2023-08-30T04:33:21;98392.81;;;21.35;56.51
82562;BME280;72228;51.208;10.468;2023-08-30T04:35:50;98396.84;;;21.34;56.58
82562;BME280;72228;51.208;10.468;2023-08-30T04:38:16;98396.03;;;21.34;56.79
82562;BME280;72228;51.208;10.468;2023-08-30T04:40:41;98408.13;;;21.34;56.45
82562;BME280;72228;51.208;10.468;2023-08-30T04:43:07;98402.47;;;21.34;56.63
82562;BME280;72228;51.208;10.468;2023-08-30T04:45:34;98405.72;;;21.33;56.53
82562;BME280;72228;51.208;10.468;2023-08-30T04:48:00;98410.13;;;21.34;56.60
82562;BME280;72228;51.208;10.468;2023-08-30T04:50:25;98401.28;;;21.32;56.53
82562;BME280;72228;51.208;10.468;2023-08-30T04:52:50;98415.38;;;21.32;56.17
82562;BME280;72228;51.208;10.468;2023-08-30T04:55:16;98406.50;;;21.33;56.44
82562;BME280;72228;51.208;10.468;2023-08-30T04:57:41;98409.75;;;21.32;56.34
82562;BME280;72228;51.208;10.468;2023-08-30T05:00:11;98411.75;;;21.31;56.46
82562;BME280;72228;51.208;10.468;2023-08-30T05:02:36;98409.75;;;21.32;56.31
82562;BME280;72228;51.208;10.468;2023-08-30T05:05:02;98402.50;;;21.31;56.22
82562;BME280;72228;51.208;10.468;2023-08-30T05:07:28;98407.34;;;21.30;56.29
82562;BME280;72228;51.208;10.468;2023-08-30T05:09:53;98401.69;;;21.30;56.36
82562;BME280;72228;51.208;10.468;2023-08-30T05:12:19;98404.50;;;21.30;56.16
82562;BME280;72228;51.208;10.468;2023-08-30T05:14:44;98398.06;;;21.30;56.23
82562;BME280;72228;51.208;10.468;2023-08-30T05:17:10;98400.91;;;21.30;56.46
82562;BME280;72228;51.208;10.468;2023-08-30T05:19:35;98402.88;;;21.29;56.34
82562;BME280;72228;51.208;10.468;2023-08-30T05:22:00;98403.72;;;21.30;56.18
82562;BME280;72228;51.208;10.468;2023-08-30T05:24:26;98402.06;;;21.29;56.26
82562;BME280;72228;51.208;10.468;2023-08-30T05:26:52;98399.25;;;21.29;56.48
82562;BME280;72228;51.208;10.468;2023-08-30T05:29:18;98394.41;;;21.29;56.49
82562;BME280;72228;51.208;10.468;2023-08-30T05:31:43;98392.78;;;21.28;56.49
82562;BME280;72228;51.208;10.468;2023-08-30T05:34:09;98397.25;;;21.29;56.29
82562;BME280;72228;51.208;10.468;2023-08-30T05:36:35;98395.59;;;21.28;56.65
82562;BME280;72228;51.208;10.468;2023-08-30T05:39:01;98392.78;;;21.28;56.56
82562;BME280;72228;51.208;10.468;2023-08-30T05:41:26;98391.19;;;21.27;56.38
82562;BME280;72228;51.208;10.468;2023-08-30T05:43:51;98391.59;;;21.29;56.14
82562;BME280;72228;51.208;10.468;2023-08-30T05:46:17;98383.53;;;21.28;56.31
82562;BME280;72228;51.208;10.468;2023-08-30T05:48:42;98388.34;;;21.27;56.08
82562;BME280;72228;51.208;10.468;2023-08-30T05:51:08;98381.50;;;21.28;56.22
82562;BME280;72228;51.208;10.468;2023-08-30T05:53:33;98385.53;;;21.27;56.26
82562;BME280;72228;51.208;10.468;2023-08-30T05:55:59;98380.69;;;21.28;56.21
82562;BME280;72228;51.208;10.468;2023-08-30T05:58:24;98380.69;;;21.28;56.18
82562;BME280;72228;51.208;10.468;2023-08-30T06:00:50;98378.69;;;21.28;56.12
82562;BME280;72228;51.208;10.468;2023-08-30T06:03:15;98383.53;;;21.28;56.06
82562;BME280;72228;51.208;10.468;2023-08-30T06:05:41;98387.16;;;21.28;56.40
82562;BME280;72228;51.208;10.468;2023-08-30T06:08:08;98381.50;;;21.28;56.21
82562;BME280;72228;51.208;10.468;2023-08-30T06:10:33;98375.06;;;21.28;56.27
82562;BME280;72228;51.208;10.468;2023-08-30T06:12:59;98381.50;;;21.28;56.10
82562;BME280;72228;51.208;10.468;2023-08-30T06:15:24;98377.50;;;21.29;56.53
82562;BME280;72228;51.208;10.468;2023-08-30T06:17:51;98381.50;;;21.28;56.53
82562;BME280;72228;51.208;10.468;2023-08-30T06:20:16;98383.16;;;21.29;56.19
82562;BME280;72228;51.208;10.468;2023-08-30T06:22:42;98383.16;;;21.29;56.25
82562;BME280;72228;51.208;10.468;2023-08-30T06:25:08;98377.50;;;21.29;56.17
82562;BME280;72228;51.208;10.468;2023-08-30T06:27:36;98377.50;;;21.29;56.14
82562;BME280;72228;51.208;10.468;2023-08-30T06:30:01;98370.22;;;21.28;56.45
82562;BME280;72228;51.208;10.468;2023-08-30T06:32:26;98366.22;;;21.29;56.61
82562;BME280;72228;51.208;10.468;2023-08-30T06:34:52;98372.69;;;21.30;56.59
82562;BME280;72228;51.208;10.468;2023-08-30T06:37:17;98377.50;;;21.29;56.61
82562;BME280;72228;51.208;10.468;2023-08-30T06:39:43;98376.31;;;21.30;56.66
82562;BME280;72228;51.208;10.468;2023-08-30T06:42:08;98374.69;;;21.29;56.40
82562;BME280;72228;51.208;10.468;2023-08-30T06:44:33;98380.31;;;21.29;56.21
82562;BME280;72228;51.208;10.468;2023-08-30T06:46:59;98376.69;;;21.29;56.55
82562;BME280;72228;51.208;10.468;2023-08-30T06:49:24;98370.69;;;21.30;56.15
82562;BME280;72228;51.208;10.468;2023-08-30T06:51:50;98379.94;;;21.31;56.56
82562;BME280;72228;51.208;10.468;2023-08-30T06:54:15;98376.31;;;21.30;56.35
82562;BME280;72228;51.208;10.468;2023-08-30T06:56:41;98369.03;;;21.29;56.38
82562;BME280;72228;51.208;10.468;2023-08-30T06:59:06;98376.31;;;21.30;56.41
82562;BME280;72228;51.208;10.468;2023-08-30T07:01:33;98372.69;;;21.30;56.86
82562;BME280;72228;51.208;10.468;2023-08-30T07:03:58;98372.69;;;21.30;56.71
82562;BME280;72228;51.208;10.468;2023-08-30T07:06:23;98370.69;;;21.30;56.52
82562;BME280;72228;51.208;10.468;2023-08-30T07:08:49;98367.84;;;21.30;56.87
82562;BME280;72228;51.208;10.468;2023-08-30T07:11:14;98367.06;;;21.30;56.79
82562;BME280;72228;51.208;10.468;2023-08-30T07:13:40;98377.50;;;21.29;56.80
82562;BME280;72228;51.208;10.468;2023-08-30T07:16:05;98367.84;;;21.30;56.79
82562;BME280;72228;51.208;10.468;2023-08-30T07:18:31;98370.69;;;21.30;56.70
82562;BME280;72228;51.208;10.468;2023-08-30T07:20:56;98356.59;;;21.30;56.78
82562;BME280;72228;51.208;10.468;2023-08-30T07:23:22;98356.59;;;21.30;56.77
82562;BME280;72228;51.208;10.468;2023-08-30T07:25:47;98353.31;;;21.28;56.97
82562;BME280;72228;51.208;10.468;2023-08-30T07:28:12;98360.59;;;21.29;56.58
82562;BME280;72228;51.208;10.468;2023-08-30T07:30:38;98354.16;;;21.29;56.52
82562;BME280;72228;51.208;10.468;2023-08-30T07:33:04;98353.75;;;21.30;56.87
82562;BME280;72228;51.208;10.468;2023-08-30T07:35:30;98352.97;;;21.30;56.60
82562;BME280;72228;51.208;10.468;2023-08-30T07:37:56;98350.94;;;21.30;57.04
82562;BME280;72228;51.208;10.468;2023-08-30T07:40:21;98350.13;;;21.30;56.80
82562;BME280;72228;51.208;10.468;2023-08-30T07:42:51;98353.75;;;21.30;56.71
82562;BME280;72228;51.208;10.468;2023-08-30T07:45:17;98354.56;;;21.31;56.86
82562;BME280;72228;51.208;10.468;2023-08-30T07:47:43;98363.81;;;21.31;56.70
82562;BME280;72228;51.208;10.468;2023-08-30T07:50:08;98354.94;;;21.29;56.84
82562;BME280;72228;51.208;10.468;2023-08-30T07:52:34;98349.31;;;21.29;56.86
82562;BME280;72228;51.208;10.468;2023-08-30T07:54:59;98350.94;;;21.30;56.95
82562;BME280;72228;51.208;10.468;2023-08-30T07:57:24;98343.66;;;21.29;56.67
82562;BME280;72228;51.208;10.468;2023-08-30T07:59:50;98344.50;;;21.30;56.51
82562;BME280;72228;51.208;10.468;2023-08-30T08:02:15;98345.69;;;21.29;56.36
82562;BME280;72228;51.208;10.468;2023-08-30T08:04:41;98347.66;;;21.28;56.69
82562;BME280;72228;51.208;10.468;2023-08-30T08:07:06;98349.31;;;21.29;56.68
82562;BME280;72228;51.208;10.468;2023-08-30T08:09:32;98342.88;;;21.29;56.67
82562;BME280;72228;51.208;10.468;2023-08-30T08:11:57;98350.94;;;21.30;56.48
82562;BME280;72228;51.208;10.468;2023-08-30T08:14:24;98348.13;;;21.30;56.48
82562;BME280;72228;51.208;10.468;2023-08-30T08:16:49;98348.13;;;21.30;56.69
82562;BME280;72228;51.208;10.468;2023-08-30T08:19:15;98346.50;;;21.29;56.65
82562;BME280;72228;51.208;10.468;2023-08-30T08:21:40;98343.66;;;21.29;56.41
82562;BME280;72228;51.208;10.468;2023-08-30T08:24:06;98339.66;;;21.30;56.49
82562;BME280;72228;51.208;10.468;2023-08-30T08:26:31;98334.03;;;21.30;56.50
82562;BME280;72228;51.208;10.468;2023-08-30T08:28:57;98339.66;;;21.30;56.28
82562;BME280;72228;51.208;10.468;2023-08-30T08:31:22;98334.81;;;21.31;56.25
82562;BME280;72228;51.208;10.468;2023-08-30T08:33:51;98346.91;;;21.31;56.26
82562;BME280;72228;51.208;10.468;2023-08-30T08:36:29;98342.47;;;21.30;56.35
82562;BME280;72228;51.208;10.468;2023-08-30T08:38:55;98344.09;;;21.31;55.99
82562;BME280;72228;51.208;10.468;2023-08-30T08:41:20;98344.09;;;21.31;56.09
82562;BME280;72228;51.208;10.468;2023-08-30T08:43:47;98351.34;;;21.32;56.34
82562;BME280;72228;51.208;10.468;2023-08-30T08:46:13;98346.91;;;21.31;56.55
82562;BME280;72228;51.208;10.468;2023-08-30T08:48:43;98348.94;;;21.31;56.26
82562;BME280;72228;51.208;10.468;2023-08-30T08:51:09;98341.28;;;21.31;56.15
82562;BME280;72228;51.208;10.468;2023-08-30T08:53:35;98332.81;;;21.31;56.45
82562;BME280;72228;51.208;10.468;2023-08-30T08:56:02;98330.00;;;21.31;56.03
82562;BME280;72228;51.208;10.468;2023-08-30T08:58:30;98335.63;;;21.31;56.37
82562;BME280;72228;51.208;10.468;2023-08-30T09:00:55;98336.44;;;21.32;55.94
82562;BME280;72228;51.208;10.468;2023-08-30T09:03:21;98337.22;;;21.32;56.11
82562;BME280;72228;51.208;10.468;2023-08-30T09:05:47;98329.16;;;21.34;55.79
82562;BME280;72228;51.208;10.468;2023-08-30T09:08:15;98332.78;;;21.35;55.81
82562;BME280;72228;51.208;10.468;2023-08-30T09:10:40;98331.97;;;21.34;56.14
82562;BME280;72228;51.208;10.468;2023-08-30T09:13:06;98336.41;;;21.35;55.89
82562;BME280;72228;51.208;10.468;2023-08-30T09:15:32;98334.81;;;21.34;55.68
82562;BME280;72228;51.208;10.468;2023-08-30T09:17:58;98346.88;;;21.35;55.98
82562;BME280;72228;51.208;10.468;2023-08-30T09:20:23;98346.88;;;21.35;56.09
82562;BME280;72228;51.208;10.468;2023-08-30T09:22:49;98341.25;;;21.35;55.99
82562;BME280;72228;51.208;10.468;2023-08-30T09:25:25;98347.69;;;21.35;55.72
82562;BME280;72228;51.208;10.468;2023-08-30T09:27:57;98343.69;;;21.36;55.66
82562;BME280;72228;51.208;10.468;2023-08-30T09:30:23;98343.69;;;21.36;55.82
82562;BME280;72228;51.208;10.468;2023-08-30T09:32:49;98338.84;;;21.37;55.57
82562;BME280;72228;51.208;10.468;2023-08-30T09:35:14;98336.41;;;21.35;55.57
82562;BME280;72228;51.208;10.468;2023-08-30T09:37:40;98338.03;;;21.36;55.61
82562;BME280;72228;51.208;10.468;2023-08-30T09:40:06;98339.66;;;21.37;55.84
82562;BME280;72228;51.208;10.468;2023-08-30T09:42:32;98339.66;;;21.37;55.90
82562;BME280;72228;51.208;10.468;2023-08-30T09:44:57;98322.72;;;21.37;55.90
82562;BME280;72228;51.208;10.468;2023-08-30T09:47:25;98325.56;;;21.37;55.65
82562;BME280;72228;51.208;10.468;2023-08-30T09:49:54;98317.47;;;21.39;55.71
82562;BME280;72228;51.208;10.468;2023-08-30T09:52:25;98327.97;;;21.39;55.81
82562;BME280;72228;51.208;10.468;2023-08-30T09:54:54;98328.38;;;21.37;55.82
82562;BME280;72228;51.208;10.468;2023-08-30T09:57:20;98324.34;;;21.38;55.64
82562;BME280;72228;51.208;10.468;2023-08-30T09:59:48;98323.53;;;21.38;55.70
82562;BME280;72228;51.208;10.468;2023-08-30T10:02:13;98321.50;;;21.38;55.75
82562;BME280;72228;51.208;10.468;2023-08-30T10:04:40;98320.31;;;21.39;55.58
82562;BME280;72228;51.208;10.468;2023-08-30T10:07:06;98321.09;;;21.40;55.37
82562;BME280;72228;51.208;10.468;2023-08-30T10:09:32;98314.66;;;21.39;55.62
82562;BME280;72228;51.208;10.468;2023-08-30T10:11:58;98318.28;;;21.40;55.56
82562;BME280;72228;51.208;10.468;2023-08-30T10:14:24;98307.41;;;21.38;55.66
82562;BME280;72228;51.208;10.468;2023-08-30T10:16:51;98295.31;;;21.41;55.31
82562;BME280;72228;51.208;10.468;2023-08-30T10:19:24;98291.69;;;21.41;55.31
82562;BME280;72228;51.208;10.468;2023-08-30T10:24:28;98290.50;;;21.42;55.34
82562;BME280;72228;51.208;10.468;2023-08-30T10:26:55;98290.50;;;21.42;55.09
82562;BME280;72228;51.208;10.468;2023-08-30T10:29:22;98294.13;;;21.42;55.33
82562;BME280;72228;51.208;10.468;2023-08-30T10:31:49;98294.94;;;21.43;55.14
82562;BME280;72228;51.208;10.468;2023-08-30T10:34:16;98288.88;;;21.45;55.14
82562;BME280;72228;51.208;10.468;2023-08-30T10:36:43;98287.66;;;21.46;55.14
82562;BME280;72228;51.208;10.468;2023-08-30T10:39:13;98294.50;;;21.45;55.26
82562;BME280;72228;51.208;10.468;2023-08-30T10:41:57;98293.28;;;21.46;55.23
82562;BME280;72228;51.208;10.468;2023-08-30T10:44:23;98296.13;;;21.46;55.23
82562;BME280;72228;51.208;10.468;2023-08-30T10:46:55;98279.19;;;21.46;55.45
82562;BME280;72228;51.208;10.468;2023-08-30T10:49:21;98278.41;;;21.45;55.06
82562;BME280;72228;51.208;10.468;2023-08-30T10:51:55;98284.84;;;21.46;55.18
82562;BME280;72228;51.208;10.468;2023-08-30T10:54:36;98280.00;;;21.46;55.18
82562;BME280;72228;51.208;10.468;2023-08-30T10:57:03;98280.78;;;21.47;55.04
82562;BME280;72228;51.208;10.468;2023-08-30T10:59:29;98280.78;;;21.47;55.18
82562;BME280;72228;51.208;10.468;2023-08-30T11:02:01;98278.78;;;21.47;55.02
82562;BME280;72228;51.208;10.468;2023-08-30T11:04:26;98269.94;;;21.49;54.81
82562;BME280;72228;51.208;10.468;2023-08-30T11:06:52;98275.97;;;21.51;55.01
82562;BME280;72228;51.208;10.468;2023-08-30T11:09:20;98270.31;;;21.51;54.87
82562;BME280;72228;51.208;10.468;2023-08-30T11:11:45;98269.53;;;21.50;55.14
82562;BME280;72228;51.208;10.468;2023-08-30T11:14:12;98272.72;;;21.52;55.38
82562;BME280;72228;51.208;10.468;2023-08-30T11:16:38;98269.09;;;21.52;55.26
82562;BME280;72228;51.208;10.468;2023-08-30T11:19:05;98259.84;;;21.55;55.25
82562;BME280;72228;51.208;10.468;2023-08-30T11:26:22;98269.53;;;21.54;55.50
82562;BME280;72228;51.208;10.468;2023-08-30T11:28:48;98265.47;;;21.55;55.45
82562;BME280;72228;51.208;10.468;2023-08-30T11:31:26;98261.06;;;21.54;55.64
82562;BME280;72228;51.208;10.468;2023-08-30T11:33:53;98261.44;;;21.56;55.22
82562;BME280;72228;51.208;10.468;2023-08-30T11:36:21;98267.09;;;21.56;55.64
82562;BME280;72228;51.208;10.468;2023-08-30T11:38:49;98254.19;;;21.55;55.12
82562;BME280;72228;51.208;10.468;2023-08-30T11:41:15;98253.41;;;21.54;55.39
82562;BME280;72228;51.208;10.468;2023-08-30T11:43:40;98250.16;;;21.56;55.40
82562;BME280;72228;51.208;10.468;2023-08-30T11:46:06;98251.75;;;21.57;55.52
82562;BME280;72228;51.208;10.468;2023-08-30T11:48:32;98240.47;;;21.57;55.17
82562;BME280;72228;51.208;10.468;2023-08-30T11:50:58;98237.25;;;21.58;55.41
82562;BME280;72228;51.208;10.468;2023-08-30T11:53:25;98239.69;;;21.60;55.17
82562;BME280;72228;51.208;10.468;2023-08-30T11:55:51;98221.91;;;21.63;54.81
82562;BME280;72228;51.208;10.468;2023-08-30T11:58:20;98217.88;;;21.64;55.17
82562;BME280;72228;51.208;10.468;2023-08-30T12:00:48;98227.56;;;21.63;55.05
82562;BME280;72228;51.208;10.468;2023-08-30T12:03:14;98235.22;;;21.62;54.86
82562;BME280;72228;51.208;10.468;2023-08-30T12:05:47;98226.75;;;21.62;55.14
82562;BME280;72228;51.208;10.468;2023-08-30T12:08:30;98221.91;;;21.63;54.75
82562;BME280;72228;51.208;10.468;2023-08-30T12:10:57;98218.72;;;21.61;54.46
82562;BME280;72228;51.208;10.468;2023-08-30T12:13:25;98210.25;;;21.61;54.53
82562;BME280;72228;51.208;10.468;2023-08-30T12:15:53;98217.50;;;21.62;54.66
82562;BME280;72228;51.208;10.468;2023-08-30T12:18:29;98211.47;;;21.60;53.09
82562;BME280;72228;51.208;10.468;2023-08-30T12:21:01;98202.59;;;21.61;53.05
82562;BME280;72228;51.208;10.468;2023-08-30T12:23:32;98205.00;;;21.66;53.26
82562;BME280;72228;51.208;10.468;2023-08-30T12:28:27;98190.88;;;21.66;53.44
82562;BME280;72228;51.208;10.468;2023-08-30T12:30:53;98187.66;;;21.68;54.07
82562;BME280;72228;51.208;10.468;2023-08-30T12:33:19;98191.28;;;21.68;54.08
82562;BME280;72228;51.208;10.468;2023-08-30T12:35:45;98183.59;;;21.69;54.33
82562;BME280;72228;51.208;10.468;2023-08-30T12:38:10;98187.66;;;21.68;54.58
82562;BME280;72228;51.208;10.468;2023-08-30T12:40:37;98184.81;;;21.68;54.25
82562;BME280;72228;51.208;10.468;2023-08-30T12:43:03;98173.97;;;21.66;54.62
82562;BME280;72228;51.208;10.468;2023-08-30T12:45:29;98168.72;;;21.65;54.83
82562;BME280;72228;51.208;10.468;2023-08-30T12:47:54;98177.59;;;21.67;54.94
82562;BME280;72228;51.208;10.468;2023-08-30T12:50:21;98183.22;;;21.67;55.16
82562;BME280;72228;51.208;10.468;2023-08-30T12:52:47;98174.34;;;21.72;55.23
82562;BME280;72228;51.208;10.468;2023-08-30T12:55:13;98175.88;;;21.80;55.74
82562;BME280;72228;51.208;10.468;2023-08-30T12:57:38;98171.41;;;21.86;56.08
82562;BME280;72228;51.208;10.468;2023-08-30T13:00:04;98172.69;;;21.78;55.04
82562;BME280;72228;51.208;10.468;2023-08-30T13:02:30;98164.66;;;21.73;54.97